Time;durP1;ratioP1;P1;durP2;ratioP2;P2;SDS_P1;SDS_P2;PMS_P1;PMS_P2;Temp;Humidity;BMP_temperature;BMP_pressure;BME280_temperature;BME280_humidity;BME280_pressure;Samples;Min_cycle;Max_cycle;Signal;HPM_P1;HPM_P2
2021/03/21 00:01:16;;;;;;;7.43;6.73;;;5.90;99.90;;;;;;5000037;28;20449;-85
2021/03/21 00:04:17;;;;;;;;;;;;;;;;;;;;;
2021/03/21 00:07:51;;;;;;;8.53;7.73;;;5.90;99.90;;;;;;5000791;28;20466;-85
2021/03/21 00:10:30;;;;;;;8.73;7.80;;;6.00;99.90;;;;;;4999820;28;20452;-85
2021/03/21 00:16:43;;;;;;;11.30;8.13;;;6.00;99.90;;;;;;4989006;28;20280;-85
2021/03/21 00:19:23;;;;;;;9.80;8.57;;;6.10;99.90;;;;;;4999763;28;20487;-85
2021/03/21 00:22:30;;;;;;;9.45;8.55;;;6.10;99.90;;;;;;4999699;28;20449;-85
2021/03/21 00:26:13;;;;;;;;;;;;;;;;;;;;;
2021/03/21 00:28:59;;;;;;;9.80;8.13;;;6.10;99.90;;;;;;5016403;28;20977;-85
2021/03/21 00:31:27;;;;;;;8.90;7.27;;;6.10;99.90;;;;;;5000445;28;20437;-85
2021/03/21 00:33:55;;;;;;;9.33;8.33;;;6.10;99.90;;;;;;5000175;28;20456;-86
2021/03/21 00:36:35;;;;;;;8.60;7.20;;;6.10;99.90;;;;;;5003488;28;20818;-85
2021/03/21 00:39:32;;;;;;;10.77;8.70;;;6.10;99.90;;;;;;5004842;28;20500;-85
2021/03/21 00:42:08;;;;;;;8.67;7.73;;;6.10;99.90;;;;;;5003881;28;20809;-85
2021/03/21 00:48:25;;;;;;;11.23;9.07;;;6.10;99.90;;;;;;4995225;28;20562;-85
2021/03/21 00:50:59;;;;;;;9.83;8.90;;;6.10;99.90;;;;;;5002925;28;20536;-85
2021/03/21 00:53:32;;;;;;;10.93;8.67;;;6.10;99.90;;;;;;5000786;28;20463;-85
2021/03/21 00:56:35;;;;;;;;;;;;;;;;;;;;;
2021/03/21 00:59:23;;;;;;;9.80;8.80;;;6.10;99.90;;;;;;5005338;28;20468;-85
2021/03/21 01:02:00;;;;;;;11.63;9.20;;;6.20;99.90;;;;;;5004070;28;20498;-85
2021/03/21 01:04:42;;;;;;;10.77;8.53;;;6.20;99.90;;;;;;5003562;28;20433;-85
2021/03/21 01:07:24;;;;;;;12.60;9.67;;;6.20;99.90;;;;;;5004584;28;20421;-86
2021/03/21 01:10:23;;;;;;;14.43;10.30;;;6.20;99.90;;;;;;5003255;28;20973;-85
2021/03/21 01:13:52;;;;;;;16.43;10.40;;;6.20;99.90;;;;;;4992392;28;20527;-85
2021/03/21 01:16:40;;;;;;;13.23;11.23;;;6.20;99.90;;;;;;4858417;29;20439;-85
2021/03/21 01:25:52;;;;;;;;;;;;;;;;;;;;;
2021/03/21 01:29:00;;;;;;;13.97;11.80;;;6.30;99.90;;;;;;4963183;29;20482;-87
2021/03/21 01:31:29;;;;;;;17.57;12.30;;;6.30;99.90;;;;;;4947543;29;20442;-86
2021/03/21 01:34:27;;;;;;;;;;;;;;;;;;;;;
2021/03/21 01:44:48;;;;;;;23.43;15.80;;;6.30;99.90;;;;;;4774603;29;20838;-87
2021/03/21 01:47:44;;;;;;;19.00;14.70;;;6.30;99.90;;;;;;4795821;30;21006;-85
2021/03/21 01:50:45;;;;;;;20.67;15.30;;;6.30;99.90;;;;;;4794769;29;20550;-85
2021/03/21 01:53:36;;;;;;;17.43;14.17;;;6.40;99.90;;;;;;4906819;29;20457;-85
2021/03/21 01:56:38;;;;;;;20.57;15.57;;;6.40;99.90;;;;;;4947093;29;20501;-86
2021/03/21 01:59:29;;;;;;;21.00;14.83;;;6.40;99.90;;;;;;4924769;29;20474;-85
2021/03/21 02:02:12;;;;;;;19.70;15.60;;;6.40;99.90;;;;;;4999554;28;20456;-85
2021/03/21 02:05:31;;;;;;;21.20;15.60;;;6.40;99.90;;;;;;5001941;28;20468;-85
2021/03/21 02:08:48;;;;;;;20.40;14.90;;;6.40;99.90;;;;;;4987005;28;20515;-86
2021/03/21 02:15:05;;;;;;;19.97;15.27;;;6.50;99.90;;;;;;5002775;28;20471;-85
2021/03/21 02:18:06;;;;;;;19.07;13.73;;;6.50;99.90;;;;;;5002372;28;20436;-86
2021/03/21 02:21:15;;;;;;;16.87;14.20;;;6.50;99.90;;;;;;5002600;28;20440;-85
2021/03/21 02:24:24;;;;;;;18.93;13.77;;;6.50;99.90;;;;;;4962175;29;20423;-85
2021/03/21 02:27:04;;;;;;;16.63;13.10;;;6.60;99.90;;;;;;5006018;28;20491;-85
2021/03/21 02:29:41;;;;;;;15.20;12.50;;;6.50;99.90;;;;;;5001560;28;20472;-85
2021/03/21 02:32:15;;;;;;;15.40;11.37;;;6.50;99.90;;;;;;5001991;28;20437;-85
2021/03/21 02:38:04;;;;;;;14.53;10.83;;;6.50;99.90;;;;;;4993363;28;20463;-85
2021/03/21 02:41:11;;;;;;;13.68;9.32;;;6.60;99.90;;;;;;4922578;29;20477;-85
2021/03/21 02:47:47;;;;;;;11.20;8.63;;;6.70;99.90;;;;;;4905434;29;20475;-85
2021/03/21 02:51:14;;;;;;;10.07;7.80;;;6.60;99.90;;;;;;4866658;29;20452;-85
2021/03/21 02:54:23;;;;;;;11.87;7.40;;;6.60;99.90;;;;;;4867681;29;20466;-85
2021/03/21 02:57:30;;;;;;;8.27;6.20;;;6.60;99.90;;;;;;4867207;29;20532;-85
2021/03/21 03:04:13;;;;;;;4.87;4.37;;;6.60;99.90;;;;;;4844427;29;20455;-85
2021/03/21 03:07:25;;;;;;;;;;;;;;;;;;;;;
2021/03/21 03:11:06;;;;;;;7.37;4.97;;;6.60;99.90;;;;;;4954929;28;20859;-86
2021/03/21 03:13:56;;;;;;;;;;;;;;;;;;;;;
2021/03/21 03:16:46;;;;;;;5.63;3.40;;;6.50;99.90;;;;;;4986593;28;20464;-86
2021/03/21 03:26:33;;;;;;;4.70;3.10;;;6.50;99.90;;;;;;4922838;29;20544;-86
2021/03/21 03:33:38;;;;;;;4.23;2.60;;;6.50;99.90;;;;;;4924941;29;20501;-85
2021/03/21 03:36:46;;;;;;;7.33;3.07;;;6.50;99.90;;;;;;4960955;29;20470;-87
2021/03/21 03:43:11;;;;;;;;;;;;;;;;;;;;;
2021/03/21 03:46:11;;;;;;;3.77;2.53;;;6.50;99.90;;;;;;4961842;29;20427;-87
2021/03/21 03:49:10;;;;;;;3.50;2.43;;;6.50;99.90;;;;;;4951693;29;20497;-85
2021/03/21 03:55:41;;;;;;;7.40;3.27;;;6.40;99.90;;;;;;4960185;29;20486;-85
2021/03/21 03:58:27;;;;;;;4.20;2.30;;;6.40;99.90;;;;;;4996409;28;20467;-85
2021/03/21 04:05:29;;;;;;;4.03;3.10;;;6.40;99.90;;;;;;4881144;29;20458;-85
2021/03/21 04:08:48;;;;;;;7.80;3.33;;;6.60;99.90;;;;;;4865084;28;20463;-85
2021/03/21 04:16:10;;;;;;;5.60;3.60;;;6.40;99.90;;;;;;4918245;29;20572;-85
2021/03/21 04:19:54;;;;;;;;;;;;;;;;;;;;;
2021/03/21 04:22:55;;;;;;;5.00;3.47;;;6.30;99.90;;;;;;5004225;28;20495;-85
2021/03/21 04:33:43;;;;;;;5.10;2.90;;;6.30;99.90;;;;;;4805402;29;20473;-85
2021/03/21 04:40:45;;;;;;;5.13;3.00;;;6.40;99.90;;;;;;4903812;29;20455;-86
2021/03/21 04:44:16;;;;;;;6.03;3.40;;;6.40;99.90;;;;;;4790887;29;20611;-86
2021/03/21 04:47:13;;;;;;;4.90;2.95;;;6.20;99.90;;;;;;4820058;29;20456;-86
2021/03/21 04:54:12;;;;;;;6.47;3.30;;;6.30;99.90;;;;;;4963704;29;20466;-86
2021/03/21 05:01:05;;;;;;;;;;;;;;;;;;;;;
2021/03/21 05:04:25;;;;;;;9.47;3.20;;;6.30;99.90;;;;;;5008953;28;20476;-86
2021/03/21 05:19:21;;;;;;;12.73;3.57;;;6.20;99.90;;;;;;4963836;28;20494;-86
2021/03/21 05:27:11;;;;;;;;;;;;;;;;;;;;;
2021/03/21 05:41:43;;;;;;;9.57;2.90;;;6.10;99.90;;;;;;4807631;29;21033;-86
2021/03/21 05:53:05;;;;;;;12.13;3.90;;;6.10;99.90;;;;;;4772656;30;20458;-86
2021/03/21 05:56:01;;;;;;;;;;;;;;;;;;;;;
2021/03/21 05:59:05;;;;;;;12.43;3.90;;;6.00;99.90;;;;;;4832159;29;20479;-86
2021/03/21 06:02:01;;;;;;;20.20;6.10;;;6.00;99.90;;;;;;4881181;29;20441;-87
2021/03/21 06:05:05;;;;;;;21.33;5.90;;;6.00;99.90;;;;;;4905525;29;20460;-86
2021/03/21 06:36:13;;;;;;;23.97;5.67;;;5.80;99.90;;;;;;4874412;29;20474;-84
2021/03/21 06:39:08;;;;;;;23.73;5.97;;;5.80;99.90;;;;;;4934260;29;20472;-84
2021/03/21 06:42:17;;;;;;;21.73;5.30;;;5.80;99.90;;;;;;4926173;29;20451;-85
2021/03/21 06:45:19;;;;;;;21.05;6.38;;;5.80;99.90;;;;;;4941918;29;20473;-84
2021/03/21 06:48:08;;;;;;;22.97;5.97;;;5.90;99.90;;;;;;4926825;29;20251;-84
2021/03/21 06:55:01;;;;;;;25.05;6.15;;;5.80;99.90;;;;;;4920125;29;20481;-84
2021/03/21 06:58:47;;;;;;;19.17;6.50;;;6.00;99.90;;;;;;4895024;29;20245;-84
2021/03/21 07:01:29;;;;;;;18.70;6.70;;;5.90;99.90;;;;;;4913386;29;20451;-84
2021/03/21 07:04:38;;;;;;;17.47;5.50;;;5.90;99.90;;;;;;4928920;29;20540;-85
2021/03/21 07:08:02;;;;;;;24.60;7.13;;;5.90;99.90;;;;;;4926372;29;20584;-84
2021/03/21 07:11:11;;;;;;;18.80;6.30;;;5.80;99.90;;;;;;4925744;29;20452;-84
2021/03/21 07:14:20;;;;;;;19.33;7.57;;;5.80;99.90;;;;;;4941717;29;20483;-84
2021/03/21 07:17:10;;;;;;;19.67;6.30;;;5.80;99.90;;;;;;4925757;29;20476;-85
2021/03/21 07:20:22;;;;;;;19.80;6.30;;;5.80;99.90;;;;;;4925407;29;21019;-84
2021/03/21 07:23:46;;;;;;;24.27;6.80;;;5.90;99.90;;;;;;4904313;29;20971;-84
2021/03/21 07:26:27;;;;;;;21.73;5.73;;;5.90;99.90;;;;;;4925501;29;20483;-85
2021/03/21 07:29:31;;;;;;;22.77;6.80;;;5.90;99.90;;;;;;4955605;28;20463;-85
2021/03/21 07:32:34;;;;;;;21.33;7.37;;;5.90;99.90;;;;;;5000063;28;20452;-84
2021/03/21 07:35:47;;;;;;;24.50;6.90;;;5.90;99.90;;;;;;4991963;28;20448;-84
2021/03/21 07:38:34;;;;;;;21.23;7.33;;;5.90;99.90;;;;;;5000333;28;20469;-85
2021/03/21 07:41:11;;;;;;;22.37;7.37;;;5.90;99.90;;;;;;4999935;28;20960;-84
2021/03/21 07:44:11;;;;;;;28.93;7.47;;;6.00;99.90;;;;;;4999317;28;20452;-84
2021/03/21 07:46:49;;;;;;;18.43;6.10;;;6.00;99.90;;;;;;4999976;28;20445;-84
2021/03/21 07:50:05;;;;;;;24.50;7.13;;;6.00;99.90;;;;;;5000594;28;20496;-84
2021/03/21 07:52:52;;;;;;;28.20;7.10;;;6.00;99.90;;;;;;4999449;28;20453;-84
2021/03/21 07:55:25;;;;;;;24.13;7.40;;;6.00;99.90;;;;;;5000128;28;20429;-84
2021/03/21 07:58:05;;;;;;;24.93;6.93;;;6.10;99.90;;;;;;5000082;28;20472;-84
2021/03/21 08:00:33;;;;;;;19.23;6.77;;;6.10;99.90;;;;;;4999771;28;20460;-84
2021/03/21 08:03:34;;;;;;;30.57;7.17;;;6.10;99.90;;;;;;4999802;28;20456;-84
2021/03/21 08:06:05;;;;;;;34.83;7.37;;;6.10;99.90;;;;;;4987612;28;20449;-84
2021/03/21 08:08:38;;;;;;;19.03;7.50;;;6.10;99.90;;;;;;5001200;28;20480;-84
2021/03/21 08:11:08;;;;;;;26.83;8.00;;;6.10;99.90;;;;;;5000182;28;20436;-84
2021/03/21 08:13:42;;;;;;;29.20;7.10;;;6.20;99.90;;;;;;5000024;28;20801;-85
2021/03/21 08:16:15;;;;;;;22.73;8.73;;;6.30;99.90;;;;;;4999828;28;20475;-84
2021/03/21 08:18:47;;;;;;;24.20;7.17;;;6.30;99.90;;;;;;4999742;28;20468;-84
2021/03/21 08:21:24;;;;;;;21.90;7.23;;;6.30;99.90;;;;;;4999477;28;20484;-84
2021/03/21 08:23:54;;;;;;;33.53;8.67;;;6.30;99.90;;;;;;5001113;28;20444;-86
2021/03/21 08:26:28;;;;;;;26.07;7.37;;;6.30;99.90;;;;;;5000400;28;20484;-86
2021/03/21 08:29:17;;;;;;;29.57;6.90;;;6.40;99.90;;;;;;5000875;28;20460;-84
2021/03/21 08:31:47;;;;;;;30.50;7.53;;;6.40;99.90;;;;;;5000481;28;20437;-85
2021/03/21 08:34:43;;;;;;;22.40;6.93;;;6.40;99.90;;;;;;5000037;28;20952;-84
2021/03/21 08:37:32;;;;;;;23.13;7.20;;;6.40;99.90;;;;;;4999788;28;20563;-84
2021/03/21 08:40:31;;;;;;;32.67;8.17;;;6.40;99.90;;;;;;5000004;28;20548;-84
2021/03/21 08:43:19;;;;;;;27.90;7.33;;;6.40;99.90;;;;;;5000461;28;20456;-85
2021/03/21 08:45:49;;;;;;;17.40;6.40;;;6.50;99.90;;;;;;5000381;28;20441;-84
2021/03/21 08:48:32;;;;;;;24.87;8.33;;;6.50;99.90;;;;;;4999418;28;21001;-84
2021/03/21 08:51:25;;;;;;;26.40;7.77;;;6.60;99.90;;;;;;4999827;28;20448;-85
2021/03/21 08:53:58;;;;;;;23.87;7.10;;;6.60;99.90;;;;;;4999022;28;20463;-84
2021/03/21 08:56:31;;;;;;;26.00;8.20;;;6.60;99.90;;;;;;5000961;28;20503;-85
2021/03/21 08:59:26;;;;;;;24.33;6.97;;;6.60;99.90;;;;;;5002789;28;20468;-84
2021/03/21 09:02:05;;;;;;;28.47;7.70;;;6.70;99.90;;;;;;5003387;28;20455;-84
2021/03/21 09:04:35;;;;;;;26.20;7.20;;;6.70;99.90;;;;;;5002904;28;20816;-84
2021/03/21 09:07:32;;;;;;;25.10;7.03;;;6.70;99.90;;;;;;5002979;28;20499;-85
2021/03/21 09:10:27;;;;;;;20.03;6.67;;;6.70;99.90;;;;;;4989515;28;20225;-84
2021/03/21 09:13:14;;;;;;;26.53;7.53;;;6.80;99.90;;;;;;5003027;28;20810;-85
2021/03/21 09:15:43;;;;;;;22.58;6.63;;;6.80;99.90;;;;;;5003125;28;20446;-85
2021/03/21 09:18:23;;;;;;;24.07;8.70;;;6.80;99.90;;;;;;5004067;28;20268;-85
2021/03/21 09:20:59;;;;;;;20.57;6.77;;;6.80;99.90;;;;;;5002559;28;20952;-84
2021/03/21 09:23:37;;;;;;;21.23;7.27;;;6.80;99.90;;;;;;5002770;28;20437;-84
2021/03/21 09:26:21;;;;;;;25.77;8.30;;;6.80;99.90;;;;;;5001540;28;20864;-85
2021/03/21 09:28:52;;;;;;;24.07;5.83;;;6.90;99.90;;;;;;5004799;28;20464;-84
2021/03/21 09:31:20;;;;;;;25.83;7.00;;;6.90;99.90;;;;;;5002786;28;20512;-84
2021/03/21 09:34:11;;;;;;;27.03;8.40;;;7.00;99.90;;;;;;5002713;28;20499;-84
2021/03/21 09:37:45;;;;;;;;;;;;;;;;;;;;;
2021/03/21 09:41:14;;;;;;;21.00;6.77;;;7.10;99.90;;;;;;4920533;29;20447;-84
2021/03/21 09:47:29;;;;;;;27.23;7.13;;;7.20;99.90;;;;;;4947043;29;20501;-85
2021/03/21 09:58:25;;;;;;;18.63;6.67;;;7.20;99.90;;;;;;4885635;29;20518;-89
2021/03/21 10:00:57;;;;;;;28.00;8.00;;;7.20;99.90;;;;;;4949739;29;20447;-89
2021/03/21 10:03:31;;;;;;;27.80;7.60;;;7.20;99.90;;;;;;4949690;29;20485;-89
2021/03/21 10:06:08;;;;;;;24.23;9.23;;;7.30;99.90;;;;;;4948451;28;20458;-88
2021/03/21 10:08:51;;;;;;;22.00;6.70;;;7.30;99.90;;;;;;4974344;28;20476;-88
2021/03/21 10:11:28;;;;;;;22.67;6.47;;;7.40;99.90;;;;;;5004257;28;20559;-89
2021/03/21 10:13:57;;;;;;;23.57;6.90;;;7.40;99.90;;;;;;5003548;28;20460;-89
2021/03/21 10:16:42;;;;;;;26.53;6.80;;;7.50;99.90;;;;;;5002570;28;20909;-89
2021/03/21 10:19:56;;;;;;;21.77;6.53;;;7.50;99.90;;;;;;5003042;28;21023;-89
2021/03/21 10:22:51;;;;;;;21.83;6.47;;;7.50;99.90;;;;;;5000290;28;20445;-90
2021/03/21 10:25:49;;;;;;;23.13;6.40;;;7.60;99.90;;;;;;5000420;28;20484;-90
2021/03/21 10:28:37;;;;;;;25.93;7.17;;;7.60;99.90;;;;;;5001060;28;20515;-90
2021/03/21 10:31:39;;;;;;;23.50;6.47;;;7.60;99.90;;;;;;5001120;28;20444;-90
2021/03/21 10:34:49;;;;;;;19.53;6.43;;;7.70;99.90;;;;;;4999862;28;20445;-90
2021/03/21 10:37:54;;;;;;;27.70;7.10;;;7.70;99.90;;;;;;5001313;28;20469;-90
2021/03/21 10:40:40;;;;;;;30.47;5.63;;;7.80;99.90;;;;;;5001462;28;20447;-89
2021/03/21 10:43:12;;;;;;;31.80;8.00;;;7.80;99.90;;;;;;5003170;28;20452;-89
2021/03/21 10:45:50;;;;;;;15.87;4.80;;;7.80;99.90;;;;;;5002898;28;20445;-89
2021/03/21 10:48:51;;;;;;;19.17;6.00;;;7.80;99.90;;;;;;5002469;28;20467;-89
2021/03/21 10:51:19;;;;;;;23.57;5.73;;;7.80;99.90;;;;;;5001899;28;20452;-90
2021/03/21 10:54:25;;;;;;;19.53;7.07;;;7.80;99.90;;;;;;5001177;28;20787;-90
2021/03/21 10:57:41;;;;;;;25.27;6.27;;;7.80;99.90;;;;;;4999162;28;21004;-90
2021/03/21 11:03:46;;;;;;;29.93;8.17;;;7.90;99.90;;;;;;4999882;28;20441;-90
2021/03/21 11:06:18;;;;;;;19.57;6.43;;;7.90;99.90;;;;;;4999608;28;20517;-91
2021/03/21 11:08:48;;;;;;;20.93;6.53;;;7.90;99.90;;;;;;4999678;28;20477;-90
2021/03/21 11:11:36;;;;;;;21.03;6.90;;;7.90;99.90;;;;;;4999835;28;20449;-90
2021/03/21 11:14:17;;;;;;;21.30;6.03;;;8.00;99.90;;;;;;4998813;28;20452;-90
2021/03/21 11:17:43;;;;;;;21.30;5.20;;;8.10;99.90;;;;;;4997904;28;20233;-90
2021/03/21 11:20:27;;;;;;;22.13;6.90;;;8.10;99.90;;;;;;4999839;28;20816;-90
2021/03/21 11:22:57;;;;;;;24.05;6.47;;;8.10;99.90;;;;;;4999794;28;20484;-90
2021/03/21 11:25:34;;;;;;;20.27;5.77;;;8.20;99.90;;;;;;5001863;28;20197;-90
2021/03/21 11:28:02;;;;;;;22.47;4.93;;;8.20;99.90;;;;;;5003027;28;20598;-89
2021/03/21 11:30:33;;;;;;;19.07;5.17;;;8.20;99.90;;;;;;5000998;28;20480;-89
2021/03/21 11:33:18;;;;;;;17.40;6.20;;;8.20;99.90;;;;;;5000120;28;20489;-90
2021/03/21 11:35:50;;;;;;;16.57;4.67;;;8.20;99.90;;;;;;4999566;28;20479;-90
2021/03/21 11:38:29;;;;;;;14.87;4.77;;;8.20;99.90;;;;;;5000732;28;20543;-89
2021/03/21 11:40:59;;;;;;;15.90;5.03;;;8.20;99.90;;;;;;5004979;28;20455;-89
2021/03/21 11:43:29;;;;;;;20.80;6.50;;;8.20;99.90;;;;;;5003123;28;20437;-89
2021/03/21 11:46:12;;;;;;;18.37;4.83;;;8.20;99.90;;;;;;5001997;28;20452;-87
2021/03/21 11:48:40;;;;;;;24.53;6.90;;;8.30;99.90;;;;;;5001430;28;20603;-87
2021/03/21 11:51:11;;;;;;;20.87;5.70;;;8.20;99.90;;;;;;5002408;28;20460;-87
2021/03/21 11:53:40;;;;;;;16.97;4.73;;;8.30;99.90;;;;;;5001226;28;20444;-87
2021/03/21 11:56:25;;;;;;;18.17;5.60;;;8.20;99.90;;;;;;5002676;28;20481;-88
2021/03/21 11:58:58;;;;;;;15.30;4.53;;;8.30;99.90;;;;;;5002905;28;20483;-88
2021/03/21 12:01:37;;;;;;;16.83;5.60;;;8.30;99.90;;;;;;5002172;28;20456;-88
2021/03/21 12:04:09;;;;;;;15.77;5.73;;;8.30;99.90;;;;;;5001632;28;20468;-88
2021/03/21 12:06:47;;;;;;;15.27;5.77;;;8.30;99.90;;;;;;5001503;28;20459;-87
2021/03/21 12:09:25;;;;;;;19.27;6.17;;;8.40;99.90;;;;;;5001672;28;20488;-89
2021/03/21 12:11:54;;;;;;;13.07;4.27;;;8.30;99.90;;;;;;5001478;28;20448;-88
2021/03/21 12:14:47;;;;;;;16.53;4.03;;;8.30;99.90;;;;;;5002328;28;20444;-89
2021/03/21 12:17:36;;;;;;;10.93;4.40;;;8.30;99.90;;;;;;5001725;28;20464;-89
2021/03/21 12:20:46;;;;;;;17.60;5.57;;;8.30;99.90;;;;;;4998200;28;20531;-89
2021/03/21 12:23:36;;;;;;;20.13;6.37;;;8.20;99.90;;;;;;4997643;28;20437;-89
2021/03/21 12:26:11;;;;;;;16.77;6.20;;;8.20;99.90;;;;;;5000752;28;20481;-89
2021/03/21 12:28:49;;;;;;;17.97;5.17;;;8.20;99.90;;;;;;4998854;28;20468;-89
2021/03/21 12:31:23;;;;;;;16.30;4.60;;;8.30;99.90;;;;;;5001854;28;20448;-90
2021/03/21 12:33:50;;;;;;;23.00;6.50;;;8.20;99.90;;;;;;5010063;28;20440;-89
2021/03/21 12:36:31;;;;;;;23.30;6.20;;;8.30;99.90;;;;;;5006106;28;20488;-89
2021/03/21 12:39:26;;;;;;;18.60;5.40;;;8.30;99.90;;;;;;5007261;28;20480;-89
2021/03/21 12:41:55;;;;;;;19.17;5.40;;;8.20;99.90;;;;;;5006984;28;20453;-89
2021/03/21 12:44:26;;;;;;;16.30;6.00;;;8.20;99.90;;;;;;5007467;28;20448;-89
2021/03/21 12:46:57;;;;;;;20.30;5.40;;;8.20;99.90;;;;;;5006740;28;20433;-89
2021/03/21 12:49:30;;;;;;;16.90;5.60;;;8.20;99.90;;;;;;5006755;28;20503;-89
2021/03/21 12:51:59;;;;;;;12.37;5.37;;;8.10;99.90;;;;;;5007537;28;20455;-89
2021/03/21 12:54:27;;;;;;;16.57;4.93;;;8.20;99.90;;;;;;5007275;28;20445;-89
2021/03/21 12:56:55;;;;;;;19.20;4.93;;;8.10;99.90;;;;;;5007265;28;20468;-89
2021/03/21 12:59:23;;;;;;;18.20;5.70;;;8.10;99.90;;;;;;5005379;28;20491;-89
2021/03/21 13:01:51;;;;;;;24.83;5.87;;;8.10;99.90;;;;;;5007053;28;20463;-89
2021/03/21 13:04:19;;;;;;;18.20;5.63;;;8.00;99.90;;;;;;5007387;28;20813;-89
2021/03/21 13:06:53;;;;;;;19.80;5.93;;;8.00;99.90;;;;;;5006860;28;20429;-89
2021/03/21 13:09:20;;;;;;;20.73;5.53;;;8.00;99.90;;;;;;5006008;28;20981;-89
2021/03/21 13:11:48;;;;;;;17.47;4.50;;;8.10;99.90;;;;;;5006396;28;20456;-89
2021/03/21 13:14:16;;;;;;;16.03;5.53;;;8.10;99.90;;;;;;5004700;28;20559;-88
2021/03/21 13:16:43;;;;;;;19.75;5.80;;;8.10;99.90;;;;;;5002161;28;20444;-88
2021/03/21 13:19:11;;;;;;;17.83;4.80;;;8.20;99.90;;;;;;5004386;28;20229;-89
2021/03/21 13:21:38;;;;;;;15.07;4.47;;;8.20;99.90;;;;;;5006014;28;20576;-89
2021/03/21 13:24:07;;;;;;;17.00;5.00;;;8.30;99.90;;;;;;5005317;28;20459;-89
2021/03/21 13:26:34;;;;;;;10.90;3.90;;;8.30;99.90;;;;;;5005027;28;20514;-89
2021/03/21 13:29:02;;;;;;;15.53;3.60;;;8.30;99.90;;;;;;5004558;28;20479;-89
2021/03/21 13:31:30;;;;;;;20.60;4.60;;;8.20;99.90;;;;;;5006289;28;20463;-89
2021/03/21 13:33:57;;;;;;;15.67;5.40;;;8.20;99.90;;;;;;5005776;28;20455;-89
2021/03/21 13:36:25;;;;;;;17.00;3.93;;;8.20;99.90;;;;;;5004933;28;20511;-89
2021/03/21 13:38:55;;;;;;;15.30;5.60;;;8.20;99.90;;;;;;5006011;28;20523;-89
2021/03/21 13:41:32;;;;;;;13.80;5.30;;;8.20;99.90;;;;;;5005916;28;20429;-89
2021/03/21 13:43:59;;;;;;;20.50;4.80;;;8.20;99.90;;;;;;5004902;28;20484;-89
2021/03/21 13:46:27;;;;;;;18.87;4.57;;;8.30;99.90;;;;;;5006546;28;20429;-89
2021/03/21 13:48:55;;;;;;;17.93;4.60;;;8.30;99.90;;;;;;5004707;28;20471;-89
2021/03/21 13:51:23;;;;;;;13.50;3.90;;;8.40;99.90;;;;;;5004692;28;20452;-89
2021/03/21 13:53:51;;;;;;;21.70;5.00;;;8.40;99.90;;;;;;5004906;28;20476;-89
2021/03/21 13:56:19;;;;;;;20.07;5.30;;;8.50;99.90;;;;;;5004921;28;20459;-89
2021/03/21 13:58:46;;;;;;;18.83;4.37;;;8.50;99.90;;;;;;5005362;28;20475;-89
2021/03/21 14:01:14;;;;;;;13.03;4.63;;;8.50;99.90;;;;;;5005151;28;20460;-89
2021/03/21 14:03:41;;;;;;;13.50;5.20;;;8.50;99.90;;;;;;5002849;28;20452;-88
2021/03/21 14:06:10;;;;;;;18.37;5.17;;;8.50;99.90;;;;;;5001842;28;20524;-88
2021/03/21 14:08:37;;;;;;;15.17;5.63;;;8.50;99.90;;;;;;5002058;28;20865;-88
2021/03/21 14:11:05;;;;;;;25.50;5.30;;;8.50;99.90;;;;;;5001885;28;20459;-88
2021/03/21 14:13:33;;;;;;;26.03;5.67;;;8.50;99.90;;;;;;5001744;28;20459;-88
2021/03/21 14:16:00;;;;;;;16.43;4.53;;;8.50;99.90;;;;;;5003494;28;20954;-88
2021/03/21 14:18:27;;;;;;;16.40;4.97;;;8.50;99.90;;;;;;5001609;28;20488;-88
2021/03/21 14:20:55;;;;;;;15.27;4.60;;;8.50;99.90;;;;;;5001750;28;20449;-88
2021/03/21 14:23:28;;;;;;;19.70;6.97;;;8.50;99.90;;;;;;5001028;28;20456;-88
2021/03/21 14:26:00;;;;;;;18.00;5.13;;;8.50;99.90;;;;;;5000602;28;20496;-88
2021/03/21 14:28:34;;;;;;;15.33;4.37;;;8.50;99.90;;;;;;5000203;28;20469;-88
2021/03/21 14:31:09;;;;;;;15.73;5.37;;;8.50;99.90;;;;;;5003177;28;20471;-88
2021/03/21 14:33:37;;;;;;;16.27;4.83;;;8.50;99.90;;;;;;5003852;28;20532;-89
2021/03/21 14:36:08;;;;;;;11.57;3.73;;;8.50;99.90;;;;;;5004016;28;20441;-89
2021/03/21 14:38:39;;;;;;;18.23;3.93;;;8.50;99.90;;;;;;5002558;28;20488;-89
2021/03/21 14:41:08;;;;;;;14.40;4.60;;;8.50;99.90;;;;;;5003824;28;20463;-88
2021/03/21 14:43:36;;;;;;;15.80;5.53;;;8.50;99.90;;;;;;5003829;28;20476;-88
2021/03/21 14:46:07;;;;;;;13.07;4.50;;;8.40;99.90;;;;;;5003163;28;20456;-88
2021/03/21 14:48:37;;;;;;;11.27;4.27;;;8.40;99.90;;;;;;5003942;28;20453;-88
2021/03/21 14:51:06;;;;;;;15.20;4.13;;;8.30;99.90;;;;;;5002967;28;20455;-88
2021/03/21 14:53:33;;;;;;;22.87;6.00;;;8.30;99.90;;;;;;5002143;28;20512;-88
2021/03/21 14:56:02;;;;;;;15.43;4.85;;;8.30;99.90;;;;;;5002330;28;20465;-88
2021/03/21 14:58:30;;;;;;;15.00;3.90;;;8.30;99.90;;;;;;5000933;28;20229;-88
2021/03/21 15:01:01;;;;;;;13.93;4.40;;;8.30;99.90;;;;;;4999633;28;20453;-88
2021/03/21 15:03:31;;;;;;;15.17;4.80;;;8.20;99.90;;;;;;5006554;28;20472;-89
2021/03/21 15:05:59;;;;;;;17.60;4.83;;;8.20;99.90;;;;;;5002637;28;20895;-88
2021/03/21 15:08:34;;;;;;;15.13;4.50;;;8.20;99.90;;;;;;5004564;28;20473;-88
2021/03/21 15:11:05;;;;;;;14.00;4.50;;;8.20;99.90;;;;;;5003777;28;20499;-89
2021/03/21 15:13:35;;;;;;;16.23;5.17;;;8.10;99.90;;;;;;5000720;28;20452;-89
2021/03/21 15:16:05;;;;;;;17.23;4.20;;;8.10;99.90;;;;;;5001346;28;20441;-89
2021/03/21 15:18:35;;;;;;;19.73;5.90;;;8.00;99.90;;;;;;5000894;28;20531;-89
2021/03/21 15:21:08;;;;;;;14.17;4.10;;;8.10;99.90;;;;;;4999776;28;20460;-89
2021/03/21 15:23:39;;;;;;;18.80;4.30;;;7.90;99.90;;;;;;5002023;28;20480;-88
2021/03/21 15:26:12;;;;;;;17.63;4.33;;;7.90;99.90;;;;;;5002398;28;20452;-88
2021/03/21 15:28:43;;;;;;;13.73;4.90;;;7.90;99.90;;;;;;5001976;28;20501;-89
2021/03/21 15:31:14;;;;;;;13.30;3.93;;;7.80;99.90;;;;;;5000093;28;20870;-89
2021/03/21 15:33:42;;;;;;;16.40;4.87;;;7.80;99.90;;;;;;4999449;28;20499;-88
2021/03/21 15:36:15;;;;;;;17.13;5.43;;;7.80;99.90;;;;;;5002859;28;20445;-88
2021/03/21 15:38:49;;;;;;;23.20;6.17;;;7.70;99.90;;;;;;5003246;28;20821;-88
2021/03/21 15:41:21;;;;;;;14.47;4.60;;;7.70;99.90;;;;;;5004772;28;20428;-89
2021/03/21 15:43:50;;;;;;;19.57;4.10;;;7.70;99.90;;;;;;5001994;28;20475;-88
2021/03/21 15:46:18;;;;;;;15.47;4.53;;;7.70;99.90;;;;;;5001597;28;20445;-88
2021/03/21 15:48:46;;;;;;;15.37;5.33;;;7.60;99.90;;;;;;5002616;28;20463;-88
2021/03/21 15:51:14;;;;;;;16.93;5.87;;;7.60;99.90;;;;;;5002519;28;20976;-88
2021/03/21 15:53:42;;;;;;;21.07;5.07;;;7.50;99.90;;;;;;5002550;28;20471;-88
2021/03/21 15:56:10;;;;;;;18.50;5.20;;;7.50;99.90;;;;;;5000718;28;20822;-87
2021/03/21 15:58:38;;;;;;;18.80;5.27;;;7.50;99.90;;;;;;5001966;28;20476;-89
2021/03/21 16:01:06;;;;;;;19.83;5.60;;;7.50;99.90;;;;;;5000298;28;20460;-87
2021/03/21 16:03:36;;;;;;;13.07;5.37;;;7.40;99.90;;;;;;4999926;28;20483;-88
2021/03/21 16:06:06;;;;;;;17.57;4.80;;;7.30;99.90;;;;;;5000471;28;20448;-89
2021/03/21 16:08:34;;;;;;;20.03;5.30;;;7.30;99.90;;;;;;4999711;28;20468;-89
2021/03/21 16:11:02;;;;;;;11.93;4.57;;;7.30;99.90;;;;;;5000870;28;20506;-89
2021/03/21 16:13:30;;;;;;;14.83;5.00;;;7.30;99.90;;;;;;5001666;28;20445;-89
2021/03/21 16:15:59;;;;;;;13.70;4.57;;;7.20;99.90;;;;;;5002003;28;20445;-89
2021/03/21 16:18:27;;;;;;;14.83;4.93;;;7.20;99.90;;;;;;5001233;28;20480;-89
2021/03/21 16:20:55;;;;;;;18.53;4.97;;;7.20;99.90;;;;;;5003655;28;20441;-89
2021/03/21 16:23:24;;;;;;;13.83;4.57;;;7.20;99.90;;;;;;5002848;28;20463;-89
2021/03/21 16:25:53;;;;;;;12.87;4.50;;;7.20;99.90;;;;;;5001503;28;20807;-89
2021/03/21 16:28:29;;;;;;;15.53;4.50;;;7.10;99.90;;;;;;5001900;28;20576;-87
2021/03/21 16:31:04;;;;;;;13.00;5.00;;;7.10;99.90;;;;;;5001325;28;20451;-86
2021/03/21 16:33:35;;;;;;;14.63;4.90;;;7.00;99.90;;;;;;4999524;28;20535;-85
2021/03/21 16:36:04;;;;;;;11.00;4.20;;;7.00;99.90;;;;;;4998989;28;20444;-85
2021/03/21 16:38:31;;;;;;;11.00;3.93;;;7.00;99.90;;;;;;4998592;28;20480;-87
2021/03/21 16:41:00;;;;;;;10.30;3.67;;;7.00;99.90;;;;;;4999495;28;20432;-87
2021/03/21 16:43:32;;;;;;;11.60;3.80;;;6.90;99.90;;;;;;4998514;28;21008;-87
2021/03/21 16:46:04;;;;;;;13.90;3.87;;;6.90;99.90;;;;;;4998148;28;20476;-87
2021/03/21 16:48:36;;;;;;;14.70;3.90;;;6.80;99.90;;;;;;4997449;28;20452;-88
2021/03/21 16:51:09;;;;;;;12.43;3.97;;;6.90;99.90;;;;;;4999345;28;20795;-88
2021/03/21 16:53:37;;;;;;;13.87;5.03;;;6.90;99.90;;;;;;4999403;28;20544;-87
2021/03/21 16:56:07;;;;;;;14.77;4.20;;;6.80;99.90;;;;;;4997908;28;20547;-87
2021/03/21 16:58:38;;;;;;;15.07;4.10;;;6.80;99.90;;;;;;4999026;28;20230;-87
2021/03/21 17:01:07;;;;;;;18.40;5.13;;;6.70;99.90;;;;;;4998844;28;20461;-87
2021/03/21 17:03:36;;;;;;;12.63;4.37;;;6.70;99.90;;;;;;4998351;28;20452;-87
2021/03/21 17:06:04;;;;;;;17.20;4.50;;;6.60;99.90;;;;;;5000736;28;20421;-87
2021/03/21 17:08:32;;;;;;;13.80;5.13;;;6.60;99.90;;;;;;4998789;28;20903;-87
2021/03/21 17:11:00;;;;;;;9.77;3.83;;;6.60;99.90;;;;;;4999547;28;20964;-87
2021/03/21 17:13:27;;;;;;;14.63;5.10;;;6.50;99.90;;;;;;4999779;28;20452;-86